Blvd Station, Iowa
Current Conditions -  °F | °C
As of 1:52 PM on Thursday 18 Dec 2014 (Local Time) from KSUX Reporting Station
Overcast Overcast  
Wind Chill: 30°   Ceiling: 2400
Heat Index: 30°   Visibility: 10mi
Dew Point: 22°   Wind: 0mph
Humidity: 72%   Direction: NA
Pressure: 30.21"   Gusts: NA
Location:  42.5093°N, 96.4764°W
Report Text: KSUX 181952Z 00000KT 10SM OVC024 M01/M06 A3021 RMK AO2 SLP244 T10111056
Loading
Personal Weather Stations






























Interactive Weather Map New forecast layout! Learn more

10-Day Weather Forecast

Advertisements
Track Severe Weather on mobile